Latest Weather Observations for Griffith

IDN60801

Issued at 2:05 pm EST Wednesday 24 September 2014 (issued every 30 minutes, with the page automatically refreshed every 10 minutes)

About weather observations | Map of weather stations | Latest weather observations for NSW | Other Formats
Station Details ID: 075041 Name: GRIFFITH AIRPORT AWS Lat: -34.25 Lon: 146.07 Height: 134.0 m
Data from the previous 72 hours. | See also: Recent months at Griffith
Date/Time
EST
Temp
°C
App
Temp
°C
Dew
Point
Rel
Hum
%
Delta-T
°C
Wind Press
QNH
hPa
Press
MSL
hPa
Rain
since 9 am
mm
Dir
 
Spd
km/h
Gust
km/h
Spd
kts
Gust
kts
24/02:00pm 18.5 16.8 15.7 84 1.7 WNW 19 22 10 12 1014.0 1014.0 2.0
24/01:30pm 17.6 16.9 16.3 92 0.8 W 15 17 8 9 1014.5 1014.5 2.0
24/01:00pm 17.1 13.6 15.6 91 0.9 NW 28 41 15 22 1015.4 1015.4 1.0
24/12:39pm 18.7 13.2 14.6 77 2.4 WNW 37 46 20 25 1015.3 1015.3 0.2
24/12:30pm 20.3 14.4 12.3 60 4.5 NNW 35 59 19 32 1015.1 1015.1 0.2
24/12:25pm 24.7 19.0 9.8 39 8.2 N 30 52 16 28 1014.6 1014.6 0.2
24/12:00pm 24.5 19.7 8.9 37 8.5 N 24 35 13 19 1015.0 1015.0 0.2
24/11:43am 25.8 20.3 9.2 35 9.1 N 28 50 15 27 1015.2 1015.2 0.2
24/11:30am 25.0 19.1 8.9 36 8.8 N 30 43 16 23 1015.6 1015.6 0.2
24/11:00am 24.2 18.9 8.6 37 8.4 N 26 37 14 20 1016.5 1016.5 0.2
24/10:30am 24.4 17.9 8.8 37 8.4 N 33 44 18 24 1017.0 1017.0 0.2
24/10:11am 23.7 18.1 8.9 39 8.0 N 28 46 15 25 1017.2 1017.2 0.2
24/10:00am 23.4 18.2 8.7 39 7.9 NNE 26 39 14 21 1017.4 1017.4 0.0
24/09:30am 22.1 16.7 8.2 41 7.3 NNE 26 37 14 20 1018.0 1018.0 0.0
24/09:00am 20.8 16.6 8.1 44 6.6 NE 20 26 11 14 1018.5 1018.5 0.4
24/08:30am 18.4 14.1 7.2 48 5.7 ENE 19 22 10 12 1018.8 1018.8 0.4
24/08:00am 17.6 13.4 8.2 54 4.8 E 20 26 11 14 1018.9 1018.9 0.4
24/07:30am 15.1 11.8 9.7 70 2.8 E 17 20 9 11 1018.8 1018.8 0.4
24/07:00am 14.4 10.7 9.6 73 2.5 E 19 26 10 14 1019.0 1019.0 0.4
24/06:30am 15.2 11.7 8.9 66 3.2 E 17 20 9 11 1018.7 1018.7 0.0
24/06:00am 15.4 11.6 8.9 65 3.3 E 19 22 10 12 1018.6 1018.6 0.0
24/05:30am 15.8 14.1 8.3 61 3.8 E 7 15 4 8 1018.7 1018.7 0.0
24/05:00am 16.4 13.8 7.9 57 4.3 ENE 11 15 6 8 1018.5 1018.5 0.0
24/04:30am 16.4 14.3 8.1 58 4.2 NW 9 15 5 8 1019.0 1019.0 0.0
24/04:00am 17.5 15.1 7.0 50 5.3 NNE 9 19 5 10 1018.9 1018.9 0.0
24/03:30am 18.4 15.9 4.6 40 6.6 N 7 13 4 7 1018.7 1018.7 0.0
24/03:00am 18.8 15.8 4.2 38 7.0 NE 9 15 5 8 1018.8 1018.8 0.0
24/02:30am 19.0 15.2 4.0 37 7.2 NE 13 17 7 9 1019.1 1019.1 0.0
24/02:00am 18.9 15.2 4.3 38 7.0 NE 13 19 7 10 1019.4 1019.4 0.0
24/01:30am 18.2 14.0 4.0 39 6.7 ENE 15 20 8 11 1019.8 1019.8 0.0
24/01:00am 19.3 14.7 3.9 36 7.3 NE 17 20 9 11 1020.2 1020.2 0.0
24/12:30am 19.2 14.5 3.4 35 7.5 NE 17 22 9 12 1020.5 1020.5 0.0
24/12:00am 19.1 14.0 3.3 35 7.4 NE 19 26 10 14 1020.8 1020.8 0.0
 
Date/Time
EST
Temp
°C
App
Temp
°C
Dew
Point
Rel
Hum
%
Delta-T
°C
Wind Press
QNH
hPa
Press
MSL
hPa
Rain
since 9 am
mm
Dir
 
Spd
km/h
Gust
km/h
Spd
kts
Gust
kts
23/11:30pm 19.4 14.4 3.6 35 7.5 NE 19 26 10 14 1020.8 1020.8 0.0
23/11:00pm 17.9 12.8 3.0 37 6.9 ENE 19 20 10 11 1020.8 1020.8 0.0
23/10:30pm 18.3 12.9 2.6 35 7.3 ENE 20 26 11 14 1021.0 1021.0 0.0
23/10:00pm 18.6 13.1 2.0 33 7.6 ENE 20 26 11 14 1021.2 1021.2 0.0
23/09:30pm 18.0 13.1 1.9 34 7.3 ENE 17 22 9 12 1021.3 1021.3 0.0
23/09:00pm 16.1 11.1 1.4 37 6.5 ENE 17 17 9 9 1021.4 1021.4 0.0
23/08:30pm 16.8 11.9 1.7 36 6.8 E 17 20 9 11 1021.3 1021.3 0.0
23/08:00pm 17.3 12.3 1.3 34 7.1 E 17 22 9 12 1021.3 1021.3 0.0
23/07:30pm 17.9 12.8 1.0 32 7.5 E 17 19 9 10 1021.4 1021.4 0.0
23/07:00pm 17.8 13.2 1.3 33 7.4 ENE 15 17 8 9 1021.6 1021.6 0.0
23/06:30pm 19.1 15.2 1.1 30 8.1 ENE 11 15 6 8 1021.5 1021.5 0.0
23/06:00pm 21.9 17.5 0.4 24 9.8 NE 13 19 7 10 1021.5 1021.5 0.0
23/05:30pm 24.4 19.2 0.0 20 11.2 NE 17 20 9 11 1021.5 1021.5 0.0
23/05:00pm 25.5 21.4 -0.5 18 11.9 NE 11 22 6 12 1021.4 1021.4 0.0
23/04:30pm 25.4 20.8 -1.4 17 12.1 N 13 17 7 9 1021.4 1021.4 0.0
23/04:00pm 25.8 21.3 -0.3 18 12.0 NE 13 20 7 11 1021.5 1021.5 0.0
23/03:30pm 26.2 22.0 -0.8 17 12.4 ENE 11 24 6 13 1021.8 1021.8 0.0
23/03:00pm 26.1 22.5 0.7 19 12.0 NE 9 22 5 12 1022.1 1022.2 0.0
23/02:30pm 25.7 21.7 0.4 19 11.9 ENE 11 20 6 11 1022.5 1022.6 0.0
23/02:00pm 25.3 20.8 0.0 19 11.7 NE 13 22 7 12 1022.9 1023.0 0.0
23/01:30pm 25.8 21.5 1.2 20 11.7 NNE 13 24 7 13 1023.6 1023.6 0.0
23/01:00pm 26.0 20.2 -0.1 18 12.1 NE 20 24 11 13 1023.9 1023.9 0.0
23/12:30pm 25.1 20.7 0.6 20 11.5 NNE 13 19 7 10 1024.6 1024.6 0.0
23/12:00pm 24.1 20.7 1.7 23 10.6 E 9 19 5 10 1025.2 1025.2 0.0
23/11:30am 24.1 19.2 2.3 24 10.5 NNE 17 20 9 11 1025.7 1025.7 0.0
23/11:00am 23.6 18.1 1.9 24 10.2 NE 20 30 11 16 1026.0 1026.0 0.0
23/10:30am 23.3 17.6 2.7 26 9.9 NE 22 30 12 16 1026.4 1026.4 0.0
23/10:00am 22.7 17.6 2.8 27 9.5 NE 19 26 10 14 1026.8 1026.8 0.0
23/09:30am 21.8 16.9 3.9 31 8.7 NE 19 26 10 14 1027.3 1027.3 0.0
23/09:00am 19.9 16.5 4.0 35 7.6 ENE 11 17 6 9 1027.5 1027.5 0.0
23/08:30am 17.9 14.0 3.4 38 6.8 E 13 15 7 8 1027.8 1027.8 0.0
23/08:00am 15.8 13.2 4.2 46 5.4 E 7 11 4 6 1027.9 1027.9 0.0
23/07:30am 12.4 9.0 3.9 56 3.8 ESE 11 13 6 7 1027.7 1027.7 0.0
23/07:00am 9.6 6.8 3.4 65 2.7 E 7 11 4 6 1027.6 1027.6 0.0
23/06:30am 8.5 4.9 2.7 67 2.5 ESE 11 13 6 7 1027.3 1027.3 0.0
23/06:00am 8.7 4.2 2.3 64 2.7 ESE 15 17 8 9 1027.3 1027.3 0.0
23/05:30am 9.3 4.5 2.4 62 2.9 ESE 17 19 9 10 1027.2 1027.2 0.0
23/05:00am 9.3 5.3 2.6 63 2.8 ESE 13 15 7 8 1026.9 1026.9 0.0
23/04:30am 8.1 4.6 1.5 63 2.7 ENE 9 11 5 6 1026.7 1026.7 0.0
23/04:00am 10.1 7.2 2.5 59 3.2 E 7 9 4 5 1026.7 1026.7 0.0
23/03:30am 9.5 8.0 2.8 63 2.9 CALM 0 0 0 0 1026.8 1026.8 0.0
23/03:00am 9.3 7.2 1.9 60 3.1 W 2 6 1 3 1026.9 1026.9 0.0
23/02:30am 12.3 9.3 2.2 50 4.4 ENE 7 9 4 5 1026.7 1026.7 0.0
23/02:00am 11.7 8.3 1.8 50 4.2 E 9 13 5 7 1026.9 1026.9 0.0
23/01:30am 12.9 10.6 2.7 50 4.5 NW 4 9 2 5 1027.0 1027.0 0.0
23/01:00am 12.2 7.0 2.6 52 4.2 E 19 20 10 11 1026.9 1026.9 0.0
23/12:30am 12.4 7.2 2.3 50 4.4 E 19 20 10 11 1027.0 1027.0 0.0
23/12:00am 12.3 7.0 1.6 48 4.6 E 19 20 10 11 1027.0 1027.0 0.0
 
Date/Time
EST
Temp
°C
App
Temp
°C
Dew
Point
Rel
Hum
%
Delta-T
°C
Wind Press
QNH
hPa
Press
MSL
hPa
Rain
since 9 am
mm
Dir
 
Spd
km/h
Gust
km/h
Spd
kts
Gust
kts
22/11:30pm 13.7 8.8 2.3 46 5.0 E 17 20 9 11 1027.2 1027.2 0.0
22/11:00pm 12.9 7.5 1.3 45 4.9 E 19 19 10 10 1027.3 1027.3 0.0
22/10:30pm 13.9 9.2 0.9 41 5.6 ENE 15 19 8 10 1027.4 1027.4 0.0
22/10:00pm 15.1 10.0 0.9 38 6.1 ENE 17 19 9 10 1027.4 1027.4 0.0
22/09:30pm 14.9 10.1 0.4 37 6.2 ENE 15 17 8 9 1027.3 1027.3 0.0
22/09:00pm 14.4 9.6 0.3 38 6.0 ENE 15 17 8 9 1027.2 1027.2 0.0
22/08:30pm 14.6 10.0 1.5 41 5.7 ENE 15 17 8 9 1027.1 1027.1 0.0
22/08:00pm 14.3 10.1 1.6 42 5.5 E 13 15 7 8 1027.0 1027.0 0.0
22/07:30pm 14.4 10.1 1.3 41 5.7 E 13 13 7 7 1026.7 1026.7 0.0
22/07:00pm 15.0 10.7 0.8 38 6.1 E 13 15 7 8 1026.3 1026.3 0.0
22/06:30pm 17.2 12.9 1.2 34 7.1 E 13 15 7 8 1026.0 1026.0 0.0
22/06:00pm 20.0 15.7 1.0 28 8.6 ENE 13 15 7 8 1025.6 1025.6 0.0
22/05:30pm 22.9 18.6 0.7 23 10.2 NE 13 17 7 9 1025.4 1025.4 0.0
22/05:00pm 23.6 18.4 0.0 21 10.8 NE 17 22 9 12 1025.1 1025.1 0.0
22/04:30pm 24.3 19.9 0.6 21 11.0 NE 13 22 7 12 1024.9 1024.9 0.0
22/04:00pm 24.5 19.8 0.8 21 11.0 NE 15 24 8 13 1024.9 1024.9 0.0
22/03:30pm 24.8 20.5 1.0 21 11.2 NNE 13 41 7 22 1025.0 1025.0 0.0
22/03:00pm 24.5 20.1 0.1 20 11.2 ENE 13 26 7 14 1025.4 1025.4 0.0
22/02:30pm 24.0 20.1 1.0 22 10.8 NE 11 26 6 14 1025.8 1025.8 0.0
22/02:00pm 23.6 20.6 0.7 22 10.6 NE 6 - 3 - 1026.2 1026.2 0.0
22/01:30pm 23.4 19.0 0.5 22 10.6 NNE 13 22 7 12 1026.8 1026.8 0.0
22/01:00pm 23.4 19.1 1.1 23 10.3 ENE 13 22 7 12 1027.2 1027.2 0.0
22/12:30pm 22.4 18.2 1.4 25 9.8 N 13 19 7 10 1027.8 1027.8 0.0
22/12:00pm 22.5 16.9 -0.3 22 10.2 NE 19 28 10 15 1028.3 1028.3 0.0
22/11:30am 22.1 17.2 2.2 27 9.4 N 17 30 9 16 1028.8 1028.9 0.0
22/11:00am 21.6 17.0 1.8 27 9.2 NNE 15 22 8 12 1029.1 1029.2 0.0
22/10:30am 21.4 16.9 4.0 32 8.5 NNE 17 24 9 13 1029.4 1029.5 0.0
22/10:00am 20.6 17.1 5.4 37 7.5 ENE 13 22 7 12 1029.6 1029.7 0.0
22/09:30am 19.2 16.0 4.9 39 7.0 ENE 11 20 6 11 1029.8 1029.9 0.0
22/09:00am 17.6 13.7 5.5 45 5.9 ENE 15 19 8 10 1029.8 1029.9 0.0
22/08:30am 15.3 11.9 5.8 53 4.6 E 13 17 7 9 1029.7 1029.8 0.0
22/08:00am 12.7 8.4 5.1 60 3.5 E 17 20 9 11 1029.5 1029.6 0.0
22/07:30am 10.3 6.6 4.7 68 2.5 E 13 19 7 10 1029.4 1029.5 0.0
22/07:00am 8.0 3.8 3.8 75 1.8 ESE 15 20 8 11 1029.2 1029.3 0.0
22/06:30am 7.0 2.0 3.4 78 1.5 ESE 19 26 10 14 1028.9 1029.0 0.0
22/06:00am 6.2 3.4 3.0 80 1.3 E 7 9 4 5 1028.5 1028.6 0.0
22/05:30am 6.7 2.4 3.1 78 1.5 ESE 15 19 8 10 1028.1 1028.1 0.0
22/05:00am 7.1 2.8 3.0 75 1.7 ESE 15 19 8 10 1027.7 1027.7 0.0
22/04:30am 7.2 3.2 2.9 74 1.8 ESE 13 19 7 10 1027.4 1027.4 0.0
22/04:00am 8.0 2.9 3.1 71 2.1 ESE 19 20 10 11 1027.2 1027.2 0.0
22/03:30am 7.9 3.5 2.8 70 2.2 ESE 15 19 8 10 1027.0 1027.0 0.0
22/03:00am 7.8 4.1 2.1 67 2.4 ESE 11 13 6 7 1027.0 1027.0 0.0
22/02:30am 8.8 5.8 2.2 63 2.8 E 7 9 4 5 1027.2 1027.2 0.0
22/02:00am 8.5 4.2 1.2 60 3.0 E 13 19 7 10 1027.3 1027.3 0.0
22/01:30am 10.4 5.2 2.3 57 3.5 ESE 19 20 10 11 1027.5 1027.5 0.0
22/01:00am 10.7 5.4 2.0 55 3.7 ESE 19 20 10 11 1027.7 1027.7 0.0
22/12:30am 11.3 5.9 1.5 51 4.2 ESE 19 20 10 11 1027.8 1027.8 0.0
22/12:00am 11.3 6.4 1.8 52 4.0 SE 17 19 9 10 1028.0 1028.0 0.0
 
Date/Time
EST
Temp
°C
App
Temp
°C
Dew
Point
Rel
Hum
%
Delta-T
°C
Wind Press
QNH
hPa
Press
MSL
hPa
Rain
since 9 am
mm
Dir
 
Spd
km/h
Gust
km/h
Spd
kts
Gust
kts
21/11:30pm 10.9 6.2 0.9 50 4.2 ESE 15 17 8 9 1028.0 1028.0 0.0
21/11:00pm 10.7 6.0 1.0 51 4.0 ESE 15 17 8 9 1028.2 1028.2 0.0
21/10:30pm 11.3 7.0 1.3 50 4.2 ESE 13 15 7 8 1028.3 1028.3 0.0
21/10:00pm 11.0 6.6 0.4 48 4.3 ESE 13 15 7 8 1028.2 1028.2 0.0
21/09:30pm 13.2 9.2 0.3 41 5.4 SE 11 15 6 8 1028.0 1028.0 0.0
21/09:00pm 15.9 11.2 0.9 36 6.5 SSE 15 19 8 10 1027.8 1027.8 0.0
21/08:30pm 15.5 11.4 0.1 35 6.6 SSE 11 17 6 9 1027.5 1027.5 0.0
21/08:00pm 16.4 12.3 0.1 33 7.0 SSE 11 11 6 6 1027.0 1027.0 0.0
21/07:30pm 16.7 12.7 0.4 33 7.1 SSE 11 13 6 7 1026.8 1026.8 0.0
21/07:00pm 14.5 10.6 -1.2 34 6.4 SE 9 11 5 6 1026.5 1026.5 0.0
21/06:30pm 16.6 12.8 -1.0 30 7.4 SE 9 9 5 5 1026.1 1026.1 0.0
21/06:00pm 19.3 15.1 -0.7 26 8.7 SE 11 15 6 8 1025.9 1025.9 0.0
21/05:30pm 20.8 16.4 0.1 25 9.3 SE 13 17 7 9 1025.7 1025.7 0.0
21/05:00pm 21.4 17.0 0.6 25 9.4 ESE 13 19 7 10 1025.6 1025.6 0.0
21/04:30pm 21.7 18.2 -1.6 21 10.2 ESE 7 19 4 10 1025.7 1025.7 0.0
21/04:00pm 21.9 17.1 -2.7 19 10.5 SE 13 20 7 11 1025.8 1025.8 0.0
21/03:30pm 22.3 17.0 -0.4 22 10.2 SE 17 24 9 13 1026.0 1026.0 0.0
21/03:00pm 22.3 18.7 0.8 24 9.8 SSW 9 22 5 12 1026.2 1026.2 0.0
21/02:30pm 21.6 16.8 0.2 24 9.7 SSW 15 20 8 11 1026.5 1026.5 0.0

Other Formats:

Comma delimited format used in spreadsheet applications
http://www.bom.gov.au/fwo/IDN60801/IDN60801.95704.axf

JavaScript Object Notation format (JSON) in row-major order
http://www.bom.gov.au/fwo/IDN60801/IDN60801.95704.json